Time;durP1;ratioP1;P1;durP2;ratioP2;P2;SDS_P1;SDS_P2;PMS_P1;PMS_P2;Temp;Humidity;BMP_temperature;BMP_pressure;BME280_temperature;BME280_humidity;BME280_pressure;Samples;Min_cycle;Max_cycle;Signal;HPM_P1;HPM_P2
2022/05/20 00:00:11;;;;;;;;;;;;;;;;;;5087154;28;20960;-61
2022/05/20 00:02:56;;;;;;;;;;;;;;;;;;5094205;27;20025;-62
2022/05/20 00:05:42;;;;;;;;;;;;;;;;;;5086591;28;20476;-62
2022/05/20 00:08:27;;;;;;;;;;;;;;;;;;5091588;28;19917;-62
2022/05/20 00:11:13;;;;;;;;;;;;;;;;;;5094541;28;19916;-61
2022/05/20 00:13:58;;;;;;;;;;;;;;;;;;5091705;28;20345;-63
2022/05/20 00:16:43;;;;;;;;;;;;;;;;;;5083443;28;19922;-57
2022/05/20 00:19:29;;;;;;;;;;;;;;;;;;5092176;28;19912;-55
2022/05/20 00:22:14;;;;;;;;;;;;;;;;;;5089293;28;20057;-56
2022/05/20 00:28:04;;;;;;;;;;;;;;;;;;5093378;28;19912;-55
2022/05/20 00:30:50;;;;;;;;;;;;;;;;;;5082506;28;20003;-55
2022/05/20 00:33:35;;;;;;;;;;;;;;;;;;5090536;28;19912;-56
2022/05/20 00:36:21;;;;;;;;;;;;;;;;;;5088710;28;19912;-66
2022/05/20 00:39:06;;;;;;;;;;;;;;;;;;5100562;27;20019;-65
2022/05/20 00:41:52;;;;;;;;;;;;;;;;;;5092898;28;20034;-67
2022/05/20 00:44:38;;;;;;;;;;;;;;;;;;5091669;28;19920;-66
2022/05/20 00:47:23;;;;;;;;;;;;;;;;;;5085873;28;19977;-66
2022/05/20 00:50:09;;;;;;;;;;;;;;;;;;5088759;28;19924;-69
2022/05/20 00:52:54;;;;;;;;;;;;;;;;;;5090781;27;19912;-70
2022/05/20 00:55:39;;;;;;;;;;;;;;;;;;5093363;28;20006;-71
2022/05/20 00:58:25;;;;;;;;;;;;;;;;;;5081855;28;19912;-71
2022/05/20 01:01:10;;;;;;;;;;;;;;;;;;5069248;28;19966;-70
2022/05/20 01:03:56;;;;;;;;;;;;;;;;;;5081060;28;19920;-71
2022/05/20 01:06:41;;;;;;;;;;;;;;;;;;5085948;28;19948;-72
2022/05/20 01:09:27;;;;;;;;;;;;;;;;;;5089540;28;19920;-66
2022/05/20 01:12:12;;;;;;;;;;;;;;;;;;5091411;28;20551;-60
2022/05/20 01:14:58;;;;;;;;;;;;;;;;;;5096355;28;21663;-61
2022/05/20 01:17:43;;;;;;;;;;;;;;;;;;5084637;28;20407;-60
2022/05/20 01:20:28;;;;;;;;;;;;;;;;;;5089893;28;20029;-60
2022/05/20 01:23:14;;;;;;;;;;;;;;;;;;5091630;28;19912;-60
2022/05/20 01:25:59;;;;;;;;;;;;;;;;;;5105453;27;20364;-60
2022/05/20 01:28:45;;;;;;;;;;;;;;;;;;5098901;27;19958;-53
2022/05/20 01:31:30;;;;;;;;;;;;;;;;;;5090717;27;19920;-62
2022/05/20 01:34:16;;;;;;;;;;;;;;;;;;5087207;28;19915;-62
2022/05/20 01:37:01;;;;;;;;;;;;;;;;;;5087289;28;19912;-61
2022/05/20 01:39:46;;;;;;;;;;;;;;;;;;5090953;28;20392;-61
2022/05/20 01:42:32;;;;;;;;;;;;;;;;;;5092362;28;19958;-61
2022/05/20 01:45:17;;;;;;;;;;;;;;;;;;5086972;28;20252;-61
2022/05/20 01:48:04;;;;;;;;;;;;;;;;;;5086034;27;19989;-70
2022/05/20 01:50:50;;;;;;;;;;;;;;;;;;5091858;28;19919;-55
2022/05/20 01:53:35;;;;;;;;;;;;;;;;;;5085442;28;19916;-56
2022/05/20 01:56:21;;;;;;;;;;;;;;;;;;5089029;28;19935;-55
2022/05/20 01:59:06;;;;;;;;;;;;;;;;;;5093404;27;19912;-55
2022/05/20 02:01:51;;;;;;;;;;;;;;;;;;5091073;28;19916;-55
2022/05/20 02:04:39;;;;;;;;;;;;;;;;;;5085477;28;20348;-55
2022/05/20 02:07:24;;;;;;;;;;;;;;;;;;5080761;28;19919;-55
2022/05/20 02:10:09;;;;;;;;;;;;;;;;;;5097634;28;20275;-54
2022/05/20 02:12:55;;;;;;;;;;;;;;;;;;5088679;28;19916;-54
2022/05/20 02:15:40;;;;;;;;;;;;;;;;;;5092008;28;19912;-54
2022/05/20 02:18:26;;;;;;;;;;;;;;;;;;5089351;28;19919;-55
2022/05/20 02:21:11;;;;;;;;;;;;;;;;;;5088899;28;19912;-54
2022/05/20 02:23:57;;;;;;;;;;;;;;;;;;5082563;28;20017;-58
2022/05/20 02:26:42;;;;;;;;;;;;;;;;;;5083917;28;19942;-54
2022/05/20 02:29:28;;;;;;;;;;;;;;;;;;5091348;28;19920;-53
2022/05/20 02:32:13;;;;;;;;;;;;;;;;;;5091095;27;19916;-54
2022/05/20 02:34:59;;;;;;;;;;;;;;;;;;5087288;28;20371;-53
2022/05/20 02:37:44;;;;;;;;;;;;;;;;;;5097553;27;19912;-53
2022/05/20 02:40:30;;;;;;;;;;;;;;;;;;5087776;28;19963;-66
2022/05/20 02:43:15;;;;;;;;;;;;;;;;;;5088713;28;19912;-62
2022/05/20 02:46:01;;;;;;;;;;;;;;;;;;5080853;28;19938;-62
2022/05/20 02:48:46;;;;;;;;;;;;;;;;;;5088698;28;19923;-63
2022/05/20 02:51:31;;;;;;;;;;;;;;;;;;5092538;27;19971;-61
2022/05/20 02:54:17;;;;;;;;;;;;;;;;;;5085691;28;20295;-61
2022/05/20 02:57:03;;;;;;;;;;;;;;;;;;5091552;28;19966;-61
2022/05/20 03:05:57;;;;;;;;;;;;;;;;;;5072234;28;19928;-62
2022/05/20 03:08:42;;;;;;;;;;;;;;;;;;5095748;28;19916;-61
2022/05/20 03:11:28;;;;;;;;;;;;;;;;;;5101853;28;19917;-62
2022/05/20 03:14:13;;;;;;;;;;;;;;;;;;5081666;28;19920;-64
2022/05/20 03:16:59;;;;;;;;;;;;;;;;;;5086363;28;20007;-63
2022/05/20 03:19:45;;;;;;;;;;;;;;;;;;5092565;27;19918;-73
2022/05/20 03:22:30;;;;;;;;;;;;;;;;;;5092211;28;19913;-60
2022/05/20 03:25:15;;;;;;;;;;;;;;;;;;5092898;28;19958;-61
2022/05/20 03:28:01;;;;;;;;;;;;;;;;;;5093154;28;19916;-61
2022/05/20 03:30:46;;;;;;;;;;;;;;;;;;5086766;28;19939;-61
2022/05/20 03:33:32;;;;;;;;;;;;;;;;;;5091146;28;19935;-60
2022/05/20 03:36:17;;;;;;;;;;;;;;;;;;5092580;28;20014;-61
2022/05/20 03:39:03;;;;;;;;;;;;;;;;;;5094478;28;19912;-71
2022/05/20 03:41:48;;;;;;;;;;;;;;;;;;5092877;28;19912;-71
2022/05/20 03:44:33;;;;;;;;;;;;;;;;;;5081994;28;19917;-71
2022/05/20 03:47:19;;;;;;;;;;;;;;;;;;5090377;28;19919;-70
2022/05/20 03:50:04;;;;;;;;;;;;;;;;;;5091956;28;19920;-71
2022/05/20 03:52:50;;;;;;;;;;;;;;;;;;5092411;28;19911;-71
2022/05/20 03:55:35;;;;;;;;;;;;;;;;;;5085553;28;20342;-60
2022/05/20 03:58:21;;;;;;;;;;;;;;;;;;5081469;28;19947;-66
2022/05/20 04:04:10;;;;;;;;;;;;;;;;;;5087406;28;19920;-67
2022/05/20 04:06:56;;;;;;;;;;;;;;;;;;5083691;28;20359;-66
2022/05/20 04:09:41;;;;;;;;;;;;;;;;;;5082480;28;19928;-65
2022/05/20 04:12:27;;;;;;;;;;;;;;;;;;5090807;28;20010;-62
2022/05/20 04:15:12;;;;;;;;;;;;;;;;;;5091737;28;19935;-60
2022/05/20 04:17:57;;;;;;;;;;;;;;;;;;5089427;28;19912;-61
2022/05/20 04:20:43;;;;;;;;;;;;;;;;;;5094295;27;20335;-61
2022/05/20 04:23:28;;;;;;;;;;;;;;;;;;5091988;27;19920;-61
2022/05/20 04:26:14;;;;;;;;;;;;;;;;;;5083392;28;19916;-61
2022/05/20 04:28:59;;;;;;;;;;;;;;;;;;5088080;28;20359;-63
2022/05/20 04:31:45;;;;;;;;;;;;;;;;;;5090883;28;20014;-55
2022/05/20 04:34:30;;;;;;;;;;;;;;;;;;5097425;27;20329;-56
2022/05/20 04:37:15;;;;;;;;;;;;;;;;;;5092821;28;19919;-57
2022/05/20 04:40:01;;;;;;;;;;;;;;;;;;5093603;28;19916;-56
2022/05/20 04:48:54;;;;;;;;;;;;;;;;;;5090830;28;20272;-58
2022/05/20 04:51:40;;;;;;;;;;;;;;;;;;5085591;28;19913;-62
2022/05/20 04:57:30;;;;;;;;;;;;;;;;;;5089632;27;20016;-61
2022/05/20 05:00:15;;;;;;;;;;;;;;;;;;5091296;28;19955;-60
2022/05/20 05:03:01;;;;;;;;;;;;;;;;;;5092270;27;19912;-61
2022/05/20 05:05:46;;;;;;;;;;;;;;;;;;5099540;28;19919;-63
2022/05/20 05:08:32;;;;;;;;;;;;;;;;;;5095385;28;20368;-56
2022/05/20 05:11:17;;;;;;;;;;;;;;;;;;5096612;28;19916;-60
2022/05/20 05:14:02;;;;;;;;;;;;;;;;;;5090150;28;19935;-61
2022/05/20 05:16:48;;;;;;;;;;;;;;;;;;5087919;27;19916;-61
2022/05/20 05:19:33;;;;;;;;;;;;;;;;;;5083405;28;20159;-62
2022/05/20 05:22:19;;;;;;;;;;;;;;;;;;5084627;28;19923;-60
2022/05/20 05:25:04;;;;;;;;;;;;;;;;;;5092349;28;19912;-62
2022/05/20 05:27:50;;;;;;;;;;;;;;;;;;5085442;28;20367;-55
2022/05/20 05:30:35;;;;;;;;;;;;;;;;;;5088669;27;19920;-61
2022/05/20 05:33:21;;;;;;;;;;;;;;;;;;5091156;28;19912;-61
2022/05/20 05:36:06;;;;;;;;;;;;;;;;;;5081007;28;20014;-60
2022/05/20 05:38:52;;;;;;;;;;;;;;;;;;5090274;28;20011;-60
2022/05/20 05:41:37;;;;;;;;;;;;;;;;;;5078218;28;19958;-60
2022/05/20 05:44:23;;;;;;;;;;;;;;;;;;5083695;28;19908;-60
2022/05/20 05:47:08;;;;;;;;;;;;;;;;;;5093186;27;19912;-62
2022/05/20 05:49:54;;;;;;;;;;;;;;;;;;5096085;27;19964;-61
2022/05/20 05:52:39;;;;;;;;;;;;;;;;;;5083537;28;20209;-63
2022/05/20 05:55:25;;;;;;;;;;;;;;;;;;5090840;28;19923;-63
2022/05/20 05:58:10;;;;;;;;;;;;;;;;;;5089172;28;19963;-62
2022/05/20 06:00:56;;;;;;;;;;;;;;;;;;5071912;28;19919;-64
2022/05/20 06:03:42;;;;;;;;;;;;;;;;;;5085229;28;19947;-62
2022/05/20 06:06:27;;;;;;;;;;;;;;;;;;5083966;28;19920;-72
2022/05/20 06:09:12;;;;;;;;;;;;;;;;;;5098898;28;20439;-72
2022/05/20 06:12:01;;;;;;;;;;;;;;;;;;5089374;28;19918;-73
2022/05/20 06:14:46;;;;;;;;;;;;;;;;;;5081436;28;19956;-70
2022/05/20 06:17:32;;;;;;;;;;;;;;;;;;5090522;28;19919;-68
2022/05/20 06:20:18;;;;;;;;;;;;;;;;;;5085678;28;19912;-68
2022/05/20 06:23:03;;;;;;;;;;;;;;;;;;5091716;28;20010;-59
2022/05/20 06:25:48;;;;;;;;;;;;;;;;;;5092528;28;19912;-62
2022/05/20 06:28:34;;;;;;;;;;;;;;;;;;5080109;27;19912;-60
2022/05/20 06:31:19;;;;;;;;;;;;;;;;;;5087338;27;20065;-60
2022/05/20 06:34:05;;;;;;;;;;;;;;;;;;5093991;28;19912;-60
2022/05/20 06:39:55;;;;;;;;;;;;;;;;;;5082417;28;19924;-68
2022/05/20 06:42:40;;;;;;;;;;;;;;;;;;5078339;28;20010;-53
2022/05/20 06:45:26;;;;;;;;;;;;;;;;;;5092569;28;19937;-59
2022/05/20 06:48:11;;;;;;;;;;;;;;;;;;5081033;28;20019;-61
2022/05/20 06:50:57;;;;;;;;;;;;;;;;;;5086225;28;19955;-62
2022/05/20 06:53:43;;;;;;;;;;;;;;;;;;5091069;28;19908;-64
2022/05/20 06:56:29;;;;;;;;;;;;;;;;;;5087988;28;19983;-63
2022/05/20 06:59:14;;;;;;;;;;;;;;;;;;5107207;27;19908;-63
2022/05/20 07:02:00;;;;;;;;;;;;;;;;;;5093297;27;19911;-63
2022/05/20 07:04:46;;;;;;;;;;;;;;;;;;5089154;28;19928;-63
2022/05/20 07:07:31;;;;;;;;;;;;;;;;;;5087669;28;19981;-63
2022/05/20 07:10:17;;;;;;;;;;;;;;;;;;5079181;28;19931;-63
2022/05/20 07:13:02;;;;;;;;;;;;;;;;;;5090044;28;19924;-63
2022/05/20 07:15:48;;;;;;;;;;;;;;;;;;5080018;28;20004;-63
2022/05/20 07:18:34;;;;;;;;;;;;;;;;;;5090893;28;19912;-63
2022/05/20 07:21:20;;;;;;;;;;;;;;;;;;5080986;28;20003;-51
2022/05/20 07:24:06;;;;;;;;;;;;;;;;;;5080915;28;19919;-55
2022/05/20 07:26:51;;;;;;;;;;;;;;;;;;5087124;28;19912;-56
2022/05/20 07:29:36;;;;;;;;;;;;;;;;;;5087271;28;19964;-53
2022/05/20 07:32:22;;;;;;;;;;;;;;;;;;5093514;28;19931;-54
2022/05/20 07:35:09;;;;;;;;;;;;;;;;;;5086479;28;19939;-59
2022/05/20 07:37:54;;;;;;;;;;;;;;;;;;5095098;28;19912;-62
2022/05/20 07:40:40;;;;;;;;;;;;;;;;;;5090183;28;19912;-63
2022/05/20 07:43:25;;;;;;;;;;;;;;;;;;5097010;28;19998;-64
2022/05/20 07:46:11;;;;;;;;;;;;;;;;;;5090779;28;19908;-64
2022/05/20 07:48:56;;;;;;;;;;;;;;;;;;5086335;28;20010;-63
2022/05/20 07:51:42;;;;;;;;;;;;;;;;;;5107116;28;19911;-62
2022/05/20 07:54:27;;;;;;;;;;;;;;;;;;5088526;28;19957;-63
2022/05/20 07:57:13;;;;;;;;;;;;;;;;;;5100640;28;19914;-60
2022/05/20 07:59:59;;;;;;;;;;;;;;;;;;5096990;28;20010;-60
2022/05/20 08:02:44;;;;;;;;;;;;;;;;;;5091797;28;20373;-67
2022/05/20 08:05:30;;;;;;;;;;;;;;;;;;5064131;28;19943;-60
2022/05/20 08:08:15;;;;;;;;;;;;;;;;;;5062922;28;19962;-60
2022/05/20 08:11:01;;;;;;;;;;;;;;;;;;5075186;28;19939;-62
2022/05/20 08:13:50;;;;;;;;;;;;;;;;;;5073851;28;19920;-62
2022/05/20 08:16:35;;;;;;;;;;;;;;;;;;5064805;28;19967;-64
2022/05/20 08:19:21;;;;;;;;;;;;;;;;;;5084546;28;19935;-64
2022/05/20 08:22:06;;;;;;;;;;;;;;;;;;5072533;28;19961;-64
2022/05/20 08:24:52;;;;;;;;;;;;;;;;;;5073730;28;19958;-66
2022/05/20 08:27:38;;;;;;;;;;;;;;;;;;5075644;28;20363;-67
2022/05/20 08:30:23;;;;;;;;;;;;;;;;;;5073553;27;20341;-58
2022/05/20 08:33:09;;;;;;;;;;;;;;;;;;5076174;27;19919;-60
2022/05/20 08:35:54;;;;;;;;;;;;;;;;;;5073667;28;20253;-59
2022/05/20 08:38:40;;;;;;;;;;;;;;;;;;5073239;28;19909;-60
2022/05/20 08:41:26;;;;;;;;;;;;;;;;;;5073068;28;19912;-60
2022/05/20 08:44:12;;;;;;;;;;;;;;;;;;5074395;28;20290;-60
2022/05/20 08:46:57;;;;;;;;;;;;;;;;;;5066875;28;20256;-59
2022/05/20 08:49:43;;;;;;;;;;;;;;;;;;5094674;28;19916;-61
2022/05/20 08:52:28;;;;;;;;;;;;;;;;;;5071971;28;20287;-61
2022/05/20 08:55:14;;;;;;;;;;;;;;;;;;5062281;28;19963;-62
2022/05/20 08:57:59;;;;;;;;;;;;;;;;;;5076423;28;19920;-61
2022/05/20 09:00:45;;;;;;;;;;;;;;;;;;5074293;28;19967;-62
2022/05/20 09:03:30;;;;;;;;;;;;;;;;;;5077550;28;20034;-63
2022/05/20 09:06:16;;;;;;;;;;;;;;;;;;5088789;28;20278;-64
2022/05/20 09:09:01;;;;;;;;;;;;;;;;;;5097300;28;19924;-63
2022/05/20 09:11:47;;;;;;;;;;;;;;;;;;5092972;28;19908;-63
2022/05/20 09:17:36;;;;;;;;;;;;;;;;;;5085491;28;19916;-62
2022/05/20 09:20:22;;;;;;;;;;;;;;;;;;5091452;27;19919;-64
2022/05/20 09:23:07;;;;;;;;;;;;;;;;;;5095864;27;20396;-64
2022/05/20 09:25:52;;;;;;;;;;;;;;;;;;5086162;28;19919;-56
2022/05/20 09:28:38;;;;;;;;;;;;;;;;;;5086025;28;19954;-65
2022/05/20 09:31:23;;;;;;;;;;;;;;;;;;5073922;28;20462;-65
2022/05/20 09:34:09;;;;;;;;;;;;;;;;;;5096521;28;19912;-64
2022/05/20 09:36:56;;;;;;;;;;;;;;;;;;5087436;28;20271;-66
2022/05/20 09:39:41;;;;;;;;;;;;;;;;;;5093130;28;20386;-67
2022/05/20 09:42:27;;;;;;;;;;;;;;;;;;5098056;27;19912;-66
2022/05/20 09:45:12;;;;;;;;;;;;;;;;;;5092625;28;19912;-64
2022/05/20 09:47:57;;;;;;;;;;;;;;;;;;5089742;28;19912;-64
2022/05/20 09:50:43;;;;;;;;;;;;;;;;;;5094182;28;19999;-68
2022/05/20 09:53:28;;;;;;;;;;;;;;;;;;5089476;27;19912;-65
2022/05/20 09:56:14;;;;;;;;;;;;;;;;;;5090517;27;19916;-67
2022/05/20 09:58:59;;;;;;;;;;;;;;;;;;5080579;27;19913;-67
2022/05/20 10:01:45;;;;;;;;;;;;;;;;;;5096000;27;20050;-68
2022/05/20 10:04:30;;;;;;;;;;;;;;;;;;5088829;28;20283;-61
2022/05/20 10:07:16;;;;;;;;;;;;;;;;;;5090144;28;19912;-60
2022/05/20 10:10:01;;;;;;;;;;;;;;;;;;5087739;28;19942;-63
2022/05/20 10:12:47;;;;;;;;;;;;;;;;;;5069936;28;19995;-62
2022/05/20 10:15:32;;;;;;;;;;;;;;;;;;5084449;28;20364;-62
2022/05/20 10:18:18;;;;;;;;;;;;;;;;;;5095739;27;19913;-62
2022/05/20 10:21:03;;;;;;;;;;;;;;;;;;5100225;27;20010;-65
2022/05/20 10:23:49;;;;;;;;;;;;;;;;;;5088476;28;19912;-61
2022/05/20 10:26:34;;;;;;;;;;;;;;;;;;5091651;28;19912;-61
2022/05/20 10:32:36;;;;;;;;;;;;;;;;;;5078912;28;19985;-62
2022/05/20 10:35:21;;;;;;;;;;;;;;;;;;5086937;28;19931;-60
2022/05/20 10:38:07;;;;;;;;;;;;;;;;;;5083063;28;19920;-58
2022/05/20 10:40:53;;;;;;;;;;;;;;;;;;5088858;28;20368;-59
2022/05/20 10:49:46;;;;;;;;;;;;;;;;;;5105839;28;20036;-58
2022/05/20 10:52:32;;;;;;;;;;;;;;;;;;5086754;28;19907;-60
2022/05/20 10:55:17;;;;;;;;;;;;;;;;;;5095564;28;19922;-57
2022/05/20 10:58:03;;;;;;;;;;;;;;;;;;5090907;28;19912;-67
2022/05/20 11:00:52;;;;;;;;;;;;;;;;;;5096040;27;19912;-57
2022/05/20 11:03:37;;;;;;;;;;;;;;;;;;5083224;28;19920;-58
2022/05/20 11:06:23;;;;;;;;;;;;;;;;;;5099843;28;19944;-59
2022/05/20 11:09:08;;;;;;;;;;;;;;;;;;5070993;28;19916;-58
2022/05/20 11:11:54;;;;;;;;;;;;;;;;;;5106247;28;19998;-57
2022/05/20 11:14:39;;;;;;;;;;;;;;;;;;5102048;28;19981;-59
2022/05/20 11:17:25;;;;;;;;;;;;;;;;;;5096718;27;19955;-58
2022/05/20 11:20:10;;;;;;;;;;;;;;;;;;5093232;28;20438;-56
2022/05/20 11:22:55;;;;;;;;;;;;;;;;;;5099145;28;19947;-52
2022/05/20 11:25:43;;;;;;;;;;;;;;;;;;5085082;28;19981;-58
2022/05/20 11:28:28;;;;;;;;;;;;;;;;;;5086154;28;20001;-58
2022/05/20 11:31:14;;;;;;;;;;;;;;;;;;5087260;28;19935;-57
2022/05/20 11:34:00;;;;;;;;;;;;;;;;;;5092742;28;20560;-57
2022/05/20 11:36:47;;;;;;;;;;;;;;;;;;5088775;28;19920;-60
2022/05/20 11:39:33;;;;;;;;;;;;;;;;;;5097560;28;20482;-64
2022/05/20 11:42:19;;;;;;;;;;;;;;;;;;5095257;28;19919;-66
2022/05/20 11:45:10;;;;;;;;;;;;;;;;;;5092300;27;19913;-71
2022/05/20 11:47:56;;;;;;;;;;;;;;;;;;5089809;28;19955;-67
2022/05/20 11:50:41;;;;;;;;;;;;;;;;;;5098221;28;20450;-67
2022/05/20 11:53:27;;;;;;;;;;;;;;;;;;5100158;27;19965;-63
2022/05/20 11:56:14;;;;;;;;;;;;;;;;;;5090843;28;19919;-61
2022/05/20 11:59:00;;;;;;;;;;;;;;;;;;5091053;28;19912;-53
2022/05/20 12:01:47;;;;;;;;;;;;;;;;;;5087127;28;19919;-56
2022/05/20 12:04:32;;;;;;;;;;;;;;;;;;5091066;28;20379;-56
2022/05/20 12:07:18;;;;;;;;;;;;;;;;;;5093805;28;19912;-58
2022/05/20 12:10:03;;;;;;;;;;;;;;;;;;5093526;27;19981;-58
2022/05/20 12:12:49;;;;;;;;;;;;;;;;;;5091837;28;19919;-55
2022/05/20 12:15:34;;;;;;;;;;;;;;;;;;5093510;28;19912;-70
2022/05/20 12:18:19;;;;;;;;;;;;;;;;;;5091260;28;19912;-71
2022/05/20 12:24:12;;;;;;;;;;;;;;;;;;5085061;28;20272;-72
2022/05/20 12:26:57;;;;;;;;;;;;;;;;;;5094017;28;19918;-69
2022/05/20 12:29:45;;;;;;;;;;;;;;;;;;5089380;28;19953;-58
2022/05/20 12:32:31;;;;;;;;;;;;;;;;;;5089481;28;19961;-59
2022/05/20 12:35:16;;;;;;;;;;;;;;;;;;5088746;28;19912;-59
2022/05/20 12:38:02;;;;;;;;;;;;;;;;;;5086147;28;19912;-59
2022/05/20 12:40:47;;;;;;;;;;;;;;;;;;5088341;28;19919;-62
2022/05/20 12:43:33;;;;;;;;;;;;;;;;;;5086273;28;20361;-59
2022/05/20 12:46:18;;;;;;;;;;;;;;;;;;5088363;27;19919;-59
2022/05/20 12:49:04;;;;;;;;;;;;;;;;;;5091995;28;19919;-62
2022/05/20 12:51:49;;;;;;;;;;;;;;;;;;5077358;28;19923;-58
2022/05/20 12:54:35;;;;;;;;;;;;;;;;;;5092777;28;20291;-59
2022/05/20 12:57:20;;;;;;;;;;;;;;;;;;5084677;28;19923;-56
2022/05/20 13:00:06;;;;;;;;;;;;;;;;;;5080569;28;19912;-56
2022/05/20 13:02:51;;;;;;;;;;;;;;;;;;5088525;28;20592;-58
2022/05/20 13:05:37;;;;;;;;;;;;;;;;;;5065082;28;19921;-56
2022/05/20 13:08:22;;;;;;;;;;;;;;;;;;5068833;28;19908;-59
2022/05/20 13:11:08;;;;;;;;;;;;;;;;;;5068106;28;19955;-58
2022/05/20 13:13:53;;;;;;;;;;;;;;;;;;5069709;28;19912;-57
2022/05/20 13:16:38;;;;;;;;;;;;;;;;;;5067715;28;19913;-60
2022/05/20 13:19:24;;;;;;;;;;;;;;;;;;5068638;28;19912;-58
2022/05/20 13:22:09;;;;;;;;;;;;;;;;;;5071335;28;20428;-59
2022/05/20 13:24:55;;;;;;;;;;;;;;;;;;5070726;28;19912;-66
2022/05/20 13:27:40;;;;;;;;;;;;;;;;;;5072258;28;19912;-55
2022/05/20 13:30:26;;;;;;;;;;;;;;;;;;5070764;28;19939;-63
2022/05/20 13:33:11;;;;;;;;;;;;;;;;;;5069050;28;19923;-64
2022/05/20 13:35:57;;;;;;;;;;;;;;;;;;5068659;28;19916;-61
2022/05/20 13:38:42;;;;;;;;;;;;;;;;;;5070727;28;20337;-66
2022/05/20 13:41:28;;;;;;;;;;;;;;;;;;5068617;28;20368;-62
2022/05/20 13:44:13;;;;;;;;;;;;;;;;;;5065230;28;19920;-59
2022/05/20 13:50:04;;;;;;;;;;;;;;;;;;5069513;28;19924;-71
2022/05/20 13:52:49;;;;;;;;;;;;;;;;;;5062793;28;19909;-72
2022/05/20 13:55:35;;;;;;;;;;;;;;;;;;5070352;28;19919;-72
2022/05/20 13:58:20;;;;;;;;;;;;;;;;;;5072135;28;19914;-71
2022/05/20 14:01:06;;;;;;;;;;;;;;;;;;5071248;28;19909;-70
2022/05/20 14:03:51;;;;;;;;;;;;;;;;;;5084398;28;20430;-62
2022/05/20 14:06:37;;;;;;;;;;;;;;;;;;5087093;28;19913;-61
2022/05/20 14:09:22;;;;;;;;;;;;;;;;;;5093126;27;19923;-60
2022/05/20 14:12:07;;;;;;;;;;;;;;;;;;5089442;28;19912;-61
2022/05/20 14:14:53;;;;;;;;;;;;;;;;;;5085500;28;19964;-62
2022/05/20 14:17:39;;;;;;;;;;;;;;;;;;5089146;27;19908;-62
2022/05/20 14:20:24;;;;;;;;;;;;;;;;;;5090633;28;19920;-59
2022/05/20 14:23:10;;;;;;;;;;;;;;;;;;5089713;28;19927;-63
2022/05/20 14:25:55;;;;;;;;;;;;;;;;;;5084619;28;19954;-65
2022/05/20 14:28:40;;;;;;;;;;;;;;;;;;5083867;28;20363;-65
2022/05/20 14:31:26;;;;;;;;;;;;;;;;;;5084829;28;19915;-63
2022/05/20 14:34:12;;;;;;;;;;;;;;;;;;5095183;27;19991;-65
2022/05/20 14:36:57;;;;;;;;;;;;;;;;;;5086859;28;20435;-67
2022/05/20 14:39:43;;;;;;;;;;;;;;;;;;5075224;28;20006;-59
2022/05/20 14:42:28;;;;;;;;;;;;;;;;;;5089873;28;20291;-55
2022/05/20 14:45:13;;;;;;;;;;;;;;;;;;5092422;27;19916;-54
2022/05/20 14:47:59;;;;;;;;;;;;;;;;;;5085873;28;19971;-54
2022/05/20 14:50:44;;;;;;;;;;;;;;;;;;5091235;28;20387;-56
2022/05/20 14:53:31;;;;;;;;;;;;;;;;;;5091051;28;19912;-54
2022/05/20 14:56:16;;;;;;;;;;;;;;;;;;5087498;28;20290;-57
2022/05/20 14:59:02;;;;;;;;;;;;;;;;;;5088377;28;20371;-59
2022/05/20 15:01:47;;;;;;;;;;;;;;;;;;5087790;28;19912;-58
2022/05/20 15:04:33;;;;;;;;;;;;;;;;;;5090970;27;19927;-60
2022/05/20 15:07:18;;;;;;;;;;;;;;;;;;5086602;28;19932;-60
2022/05/20 15:10:04;;;;;;;;;;;;;;;;;;5083436;28;19924;-56
2022/05/20 15:12:49;;;;;;;;;;;;;;;;;;5083149;28;20011;-57
2022/05/20 15:15:35;;;;;;;;;;;;;;;;;;5084723;28;19956;-60
2022/05/20 15:18:20;;;;;;;;;;;;;;;;;;5089600;28;19919;-64
2022/05/20 15:21:06;;;;;;;;;;;;;;;;;;5086435;28;19912;-66
2022/05/20 15:23:52;;;;;;;;;;;;;;;;;;5087477;28;20418;-64
2022/05/20 15:26:37;;;;;;;;;;;;;;;;;;5088628;28;20443;-65
2022/05/20 15:29:23;;;;;;;;;;;;;;;;;;5088463;28;20089;-68
2022/05/20 15:35:13;;;;;;;;;;;;;;;;;;5091816;28;19919;-60
2022/05/20 15:37:59;;;;;;;;;;;;;;;;;;5099724;28;19915;-59
2022/05/20 15:40:44;;;;;;;;;;;;;;;;;;5090770;28;19998;-59
2022/05/20 15:43:30;;;;;;;;;;;;;;;;;;5090507;27;20383;-59
2022/05/20 15:46:15;;;;;;;;;;;;;;;;;;5097238;28;19920;-60
2022/05/20 15:49:01;;;;;;;;;;;;;;;;;;5088621;27;19922;-59
2022/05/20 15:51:46;;;;;;;;;;;;;;;;;;5093070;28;19916;-59
2022/05/20 15:54:32;;;;;;;;;;;;;;;;;;5095515;28;19913;-60
2022/05/20 15:57:17;;;;;;;;;;;;;;;;;;5077643;28;20370;-65
2022/05/20 16:00:02;;;;;;;;;;;;;;;;;;5087841;28;19935;-63
2022/05/20 16:02:48;;;;;;;;;;;;;;;;;;5086188;28;19912;-66
2022/05/20 16:05:34;;;;;;;;;;;;;;;;;;5091983;28;20014;-68
2022/05/20 16:08:19;;;;;;;;;;;;;;;;;;5094927;28;19922;-66
2022/05/20 16:11:04;;;;;;;;;;;;;;;;;;5078301;28;20279;-60
2022/05/20 16:13:50;;;;;;;;;;;;;;;;;;5080072;28;19966;-65
2022/05/20 16:16:35;;;;;;;;;;;;;;;;;;5091835;28;20264;-62
2022/05/20 16:19:21;;;;;;;;;;;;;;;;;;5084766;28;19919;-64
2022/05/20 16:22:06;;;;;;;;;;;;;;;;;;5077193;28;20002;-63
2022/05/20 16:24:52;;;;;;;;;;;;;;;;;;5099431;28;19908;-64
2022/05/20 16:27:38;;;;;;;;;;;;;;;;;;5100554;27;19939;-61
2022/05/20 16:30:23;;;;;;;;;;;;;;;;;;5105512;28;19947;-60
2022/05/20 16:33:09;;;;;;;;;;;;;;;;;;5093035;28;20309;-60
2022/05/20 16:35:55;;;;;;;;;;;;;;;;;;5094436;28;19908;-61
2022/05/20 16:38:40;;;;;;;;;;;;;;;;;;5101318;27;19959;-60
2022/05/20 16:41:26;;;;;;;;;;;;;;;;;;5094788;28;20355;-60
2022/05/20 16:44:11;;;;;;;;;;;;;;;;;;5095247;28;19916;-60
2022/05/20 16:46:57;;;;;;;;;;;;;;;;;;5094628;28;20290;-61
2022/05/20 16:49:42;;;;;;;;;;;;;;;;;;5096190;27;19920;-61
2022/05/20 16:52:27;;;;;;;;;;;;;;;;;;5089226;27;20385;-61
2022/05/20 16:55:13;;;;;;;;;;;;;;;;;;5095720;27;19912;-62
2022/05/20 17:04:07;;;;;;;;;;;;;;;;;;5093309;28;19924;-63
2022/05/20 17:06:52;;;;;;;;;;;;;;;;;;5093227;28;19908;-62
2022/05/20 17:09:38;;;;;;;;;;;;;;;;;;5111473;28;19961;-60
2022/05/20 17:12:23;;;;;;;;;;;;;;;;;;5078853;28;19916;-60
2022/05/20 17:15:09;;;;;;;;;;;;;;;;;;5107527;27;19915;-61
2022/05/20 17:17:54;;;;;;;;;;;;;;;;;;5103943;28;19920;-62
2022/05/20 17:20:40;;;;;;;;;;;;;;;;;;5083523;27;20378;-62
2022/05/20 17:26:29;;;;;;;;;;;;;;;;;;5087933;28;20275;-59
2022/05/20 17:29:15;;;;;;;;;;;;;;;;;;5086211;28;19912;-63
2022/05/20 17:32:00;;;;;;;;;;;;;;;;;;5093631;28;19919;-63
2022/05/20 17:34:46;;;;;;;;;;;;;;;;;;5093950;28;19934;-61
2022/05/20 17:37:31;;;;;;;;;;;;;;;;;;5081918;28;20011;-62
2022/05/20 17:40:17;;;;;;;;;;;;;;;;;;5096919;28;19982;-64
2022/05/20 17:43:02;;;;;;;;;;;;;;;;;;5095974;27;19954;-65
2022/05/20 17:45:48;;;;;;;;;;;;;;;;;;5082368;28;19946;-65
2022/05/20 17:48:33;;;;;;;;;;;;;;;;;;5093600;28;19933;-64
2022/05/20 17:51:21;;;;;;;;;;;;;;;;;;5084452;28;19926;-65
2022/05/20 17:54:07;;;;;;;;;;;;;;;;;;5082120;28;19913;-63
2022/05/20 17:56:52;;;;;;;;;;;;;;;;;;5093865;28;19997;-63
2022/05/20 17:59:38;;;;;;;;;;;;;;;;;;5085038;28;20260;-62
2022/05/20 18:02:23;;;;;;;;;;;;;;;;;;5090064;28;20004;-61
2022/05/20 18:05:09;;;;;;;;;;;;;;;;;;5089970;28;19958;-61
2022/05/20 18:07:54;;;;;;;;;;;;;;;;;;5104524;27;19912;-62
2022/05/20 18:10:40;;;;;;;;;;;;;;;;;;5077955;28;20283;-59
2022/05/20 18:13:25;;;;;;;;;;;;;;;;;;5092680;28;19957;-59
2022/05/20 18:16:11;;;;;;;;;;;;;;;;;;5099855;28;19986;-60
2022/05/20 18:18:56;;;;;;;;;;;;;;;;;;5083169;28;19942;-60
2022/05/20 18:21:42;;;;;;;;;;;;;;;;;;5092060;28;20029;-59
2022/05/20 18:24:27;;;;;;;;;;;;;;;;;;5094265;28;19912;-62
2022/05/20 18:27:13;;;;;;;;;;;;;;;;;;5086180;27;20382;-62
2022/05/20 18:29:58;;;;;;;;;;;;;;;;;;5097457;27;20014;-62
2022/05/20 18:32:44;;;;;;;;;;;;;;;;;;5082406;28;19978;-61
2022/05/20 18:41:37;;;;;;;;;;;;;;;;;;5091960;28;19976;-62
2022/05/20 18:44:23;;;;;;;;;;;;;;;;;;5090944;27;20324;-61
2022/05/20 18:47:08;;;;;;;;;;;;;;;;;;5084876;28;19912;-62
2022/05/20 18:49:54;;;;;;;;;;;;;;;;;;5098789;28;20263;-61
2022/05/20 18:52:39;;;;;;;;;;;;;;;;;;5091577;28;19920;-62
2022/05/20 18:55:25;;;;;;;;;;;;;;;;;;5089871;28;20359;-61
2022/05/20 18:58:10;;;;;;;;;;;;;;;;;;5083416;28;19920;-61
2022/05/20 19:00:56;;;;;;;;;;;;;;;;;;5095733;28;20292;-64
2022/05/20 19:03:44;;;;;;;;;;;;;;;;;;5093569;28;20387;-62
2022/05/20 19:06:29;;;;;;;;;;;;;;;;;;5092838;28;19920;-62
2022/05/20 19:09:15;;;;;;;;;;;;;;;;;;5093571;28;19934;-62
2022/05/20 19:12:01;;;;;;;;;;;;;;;;;;5092395;28;19915;-62
2022/05/20 19:14:47;;;;;;;;;;;;;;;;;;5092367;28;20217;-63
2022/05/20 19:17:32;;;;;;;;;;;;;;;;;;5067370;28;19920;-63
2022/05/20 19:20:18;;;;;;;;;;;;;;;;;;5092837;28;19962;-59
2022/05/20 19:23:04;;;;;;;;;;;;;;;;;;5092802;28;20358;-56
2022/05/20 19:25:51;;;;;;;;;;;;;;;;;;5075076;28;19909;-58
2022/05/20 19:28:38;;;;;;;;;;;;;;;;;;5089847;28;20211;-56
2022/05/20 19:31:24;;;;;;;;;;;;;;;;;;5092599;28;19920;-59
2022/05/20 19:34:09;;;;;;;;;;;;;;;;;;5090523;28;19912;-60
2022/05/20 19:36:55;;;;;;;;;;;;;;;;;;5104266;28;19973;-60
2022/05/20 19:39:40;;;;;;;;;;;;;;;;;;5097576;28;19957;-61
2022/05/20 19:42:26;;;;;;;;;;;;;;;;;;5091102;28;19977;-59
2022/05/20 19:45:11;;;;;;;;;;;;;;;;;;5091036;28;19908;-60
2022/05/20 19:47:57;;;;;;;;;;;;;;;;;;5083473;28;19923;-61
2022/05/20 19:50:42;;;;;;;;;;;;;;;;;;5110683;28;20012;-61